Main page
METAR-TAF:

METAR-TAF

Airports :

Don Mueang International Airport

Bangkok, Thailand

latitude: 13-54-45N, longitude: 100-36-24E, elevation: 4 m

Current weather observation

The report was made 23 minutes ago, at 20:30 UTC
Calm wind
Temperature 26°C
Humidity 100%
Pressure 1008 hPa
Visibility 10 km or more
Few clouds at a height of 2000 ft
Scattered clouds at a height of 4000 ft
light rain

METAR: VTBD 012030Z 00000KT 9999 -RA FEW020 SCT040 26/26 Q1008 NOSIG

Time: 03:53 (20:53 UTC)

Forecast

The report was made 3 hours and 53 minutes ago, at 17:00 UTC
Forecast valid from 01 at 18 UTC to 02 at 24 UTC
Wind 5 kt from the North/Northwest
Visibility: 9000 m
Few clouds at a height of 2000 ft
Scattered clouds at a height of 8000 ft
Becoming
from 02 at 02 UTC to 02 at 04 UTC
Wind 5 kt from the Northeast

TAF: VTBD 011700Z 0118/0224 34005KT 9000 FEW020 SCT080 BECMG 0202/0204 05005KT

Weather observations and forecasts of more than 4000 airports (METAR and TAF reports).

The available stations are represented by yellow and red dots on the map.

Hover mouse over dot to see the name of the station.

Then click to see weather observations and forecasts.

To change the map : click on the green buttons with a black cross to zoom in, on the green button with a dash to zoom out, or on the green arrows for adjacent maps.


METAR-TAF: